createdAt,value
2022-11-29T00:00:58.564Z,70.91
2022-11-29T00:04:00.375Z,70.57
2022-11-29T00:07:02.209Z,69.45
2022-11-29T00:10:04.155Z,68.57
2022-11-29T00:13:06.006Z,68.85
2022-11-29T00:16:09.161Z,67.95
2022-11-29T00:19:11.641Z,70.32
2022-11-29T00:22:13.500Z,72.13
2022-11-29T00:25:15.334Z,69.86
2022-11-29T00:28:17.199Z,67.73
2022-11-29T00:31:23.083Z,67.93
2022-11-29T00:34:24.941Z,66.66
2022-11-29T00:37:26.760Z,75.55
2022-11-29T00:40:28.556Z,75.79
2022-11-29T00:43:30.391Z,73.28
2022-11-29T00:46:32.204Z,73.75
2022-11-29T00:49:34.007Z,76.53
2022-11-29T00:52:35.937Z,78.62
2022-11-29T00:55:37.813Z,76.15
2022-11-29T00:58:39.627Z,77.96
2022-11-29T01:01:41.576Z,76.55
2022-11-29T01:04:43.794Z,77.77
2022-11-29T01:07:45.917Z,75.03
2022-11-29T01:10:47.818Z,75.29
2022-11-29T01:13:50.188Z,75.60
2022-11-29T01:16:52.189Z,72.91
2022-11-29T01:19:54.118Z,76.83
2022-11-29T01:22:55.950Z,77.01
2022-11-29T01:25:58.571Z,75.47
2022-11-29T01:29:00.373Z,74.11
2022-11-29T01:32:02.158Z,75.84
2022-11-29T01:35:04.473Z,75.06
2022-11-29T01:38:06.292Z,75.00
2022-11-29T01:41:09.518Z,74.58
2022-11-29T01:44:14.099Z,71.67
2022-11-29T01:47:16.614Z,71.70
2022-11-29T01:50:18.432Z,68.75
2022-11-29T01:53:20.333Z,70.47
2022-11-29T01:56:22.195Z,70.18
2022-11-29T01:59:24.453Z,70.53
2022-11-29T02:02:34.332Z,72.07
2022-11-29T02:05:37.181Z,73.73
2022-11-29T02:08:40.087Z,72.65
2022-11-29T02:11:45.006Z,75.03
2022-11-29T02:14:56.771Z,75.74
2022-11-29T02:18:21.582Z,74.25
2022-11-29T02:21:26.722Z,71.30
2022-11-29T02:24:33.844Z,69.92
2022-11-29T02:27:58.596Z,73.05
2022-11-29T02:31:15.528Z,72.02
2022-11-29T02:34:26.510Z,76.54
2022-11-29T02:37:43.646Z,72.32
2022-11-29T02:40:50.207Z,74.73
2022-11-29T02:43:52.035Z,74.55
2022-11-29T02:47:03.039Z,73.85
2022-11-29T02:50:04.848Z,74.34
2022-11-29T02:53:06.681Z,76.76
2022-11-29T02:56:08.484Z,75.61
2022-11-29T02:59:29.216Z,73.54
2022-11-29T03:02:49.488Z,74.71
2022-11-29T03:05:59.374Z,75.55
2022-11-29T03:09:04.896Z,74.84
2022-11-29T03:12:12.721Z,75.81
2022-11-29T03:15:19.964Z,75.38
2022-11-29T03:18:21.856Z,72.39
2022-11-29T03:21:38.936Z,72.86
2022-11-29T03:24:52.260Z,74.34
2022-11-29T03:27:56.772Z,76.01
2022-11-29T03:31:02.233Z,76.55
2022-11-29T03:34:21.658Z,76.68
2022-11-29T03:37:26.043Z,73.94
2022-11-29T03:40:48.162Z,77.37
2022-11-29T03:44:08.776Z,75.91
2022-11-29T03:47:14.160Z,74.23
2022-11-29T03:50:23.828Z,73.91
2022-11-29T03:53:44.553Z,72.22
2022-11-29T03:56:46.575Z,74.56
2022-11-29T03:59:56.460Z,74.40
2022-11-29T04:03:07.640Z,73.57
2022-11-29T04:06:24.113Z,77.31
2022-11-29T04:09:40.086Z,77.37
2022-11-29T04:12:44.928Z,74.48
2022-11-29T04:15:53.014Z,74.41
2022-11-29T04:18:57.684Z,73.33
2022-11-29T04:22:08.422Z,74.09
2022-11-29T04:25:36.759Z,77.64
2022-11-29T04:28:38.567Z,77.73
2022-11-29T04:31:52.797Z,74.95
2022-11-29T04:35:13.040Z,79.04
2022-11-29T04:38:33.729Z,78.16
2022-11-29T04:42:02.209Z,76.28
2022-11-29T04:45:22.847Z,75.93
2022-11-29T04:48:36.936Z,77.82
2022-11-29T04:51:45.754Z,77.35
2022-11-29T04:54:58.471Z,77.05
2022-11-29T04:58:02.648Z,76.19
2022-11-29T05:01:20.392Z,76.32
2022-11-29T05:04:51.989Z,75.80
2022-11-29T05:08:17.328Z,71.90
2022-11-29T05:11:38.151Z,71.86
2022-11-29T05:14:58.579Z,75.24
2022-11-29T05:18:26.556Z,79.34
2022-11-29T05:21:43.624Z,80.16
2022-11-29T05:25:11.893Z,80.47
2022-11-29T05:28:26.231Z,80.25
2022-11-29T05:31:41.016Z,77.45
2022-11-29T05:35:01.842Z,76.33
2022-11-29T05:38:22.422Z,79.84
2022-11-29T05:41:33.531Z,79.55
2022-11-29T05:44:58.409Z,79.20
2022-11-29T05:48:09.451Z,78.33
2022-11-29T05:51:22.121Z,77.54
2022-11-29T05:54:26.322Z,74.64
2022-11-29T05:57:37.538Z,75.80
2022-11-29T06:00:54.143Z,74.47
2022-11-29T06:03:55.898Z,76.47
2022-11-29T06:07:18.190Z,77.19
2022-11-29T06:10:21.589Z,74.20
2022-11-29T06:13:42.572Z,73.78
2022-11-29T06:16:51.229Z,75.89
2022-11-29T06:19:53.295Z,73.64
2022-11-29T06:23:14.104Z,75.58
2022-11-29T06:26:34.009Z,74.18
2022-11-29T06:29:42.339Z,69.92
2022-11-29T06:32:54.380Z,70.63
2022-11-29T06:36:16.239Z,73.00
2022-11-29T06:39:18.235Z,73.78
2022-11-29T06:42:20.191Z,74.51
2022-11-29T06:45:22.230Z,77.82
2022-11-29T06:48:25.051Z,75.83
2022-11-29T06:51:45.477Z,74.09
2022-11-29T06:55:07.644Z,77.11
2022-11-29T06:58:32.870Z,72.95
2022-11-29T07:01:58.330Z,75.96
2022-11-29T07:05:00.206Z,75.29
2022-11-29T07:08:22.999Z,74.21
2022-11-29T07:11:25.085Z,71.27
2022-11-29T07:14:27.102Z,75.52
2022-11-29T07:17:28.905Z,76.74
2022-11-29T07:20:49.662Z,77.69
2022-11-29T07:23:51.607Z,75.38
2022-11-29T07:27:16.742Z,75.57
2022-11-29T07:30:23.264Z,71.78
2022-11-29T07:33:42.051Z,73.71
2022-11-29T07:36:50.206Z,72.92
2022-11-29T07:39:55.552Z,73.35
2022-11-29T07:43:01.697Z,73.36
2022-11-29T07:46:03.738Z,71.79
2022-11-29T07:49:05.903Z,74.46
2022-11-29T07:52:09.869Z,71.09
2022-11-29T07:55:18.731Z,71.38
2022-11-29T07:58:21.131Z,73.31
2022-11-29T08:01:23.175Z,73.46
2022-11-29T08:04:25.255Z,71.67
2022-11-29T08:07:27.290Z,72.26
2022-11-29T08:10:29.127Z,72.98
2022-11-29T08:13:31.232Z,74.58
2022-11-29T08:16:33.276Z,73.60
2022-11-29T08:19:35.269Z,71.10
2022-11-29T08:22:39.825Z,71.28
2022-11-29T08:25:41.709Z,73.42
2022-11-29T08:28:43.754Z,70.31
2022-11-29T08:31:45.752Z,70.62
2022-11-29T08:34:48.059Z,73.36
2022-11-29T08:37:50.043Z,70.51
2022-11-29T08:40:51.922Z,75.71
2022-11-29T08:43:55.098Z,73.47
2022-11-29T08:47:17.454Z,71.82
2022-11-29T08:50:20.935Z,71.96
2022-11-29T08:53:43.642Z,73.02
2022-11-29T09:00:17.791Z,70.96
2022-11-29T09:03:38.500Z,70.63
2022-11-29T09:06:41.560Z,71.05
2022-11-29T09:09:45.412Z,72.27
2022-11-29T09:12:48.331Z,69.68
2022-11-29T09:15:50.196Z,70.30
2022-11-29T09:18:55.769Z,69.21
2022-11-29T09:21:57.694Z,68.58
2022-11-29T09:24:59.578Z,70.51
2022-11-29T09:28:02.914Z,69.66
2022-11-29T09:31:14.763Z,67.36
2022-11-29T09:34:16.742Z,69.41
2022-11-29T09:37:18.615Z,70.23
2022-11-29T09:40:21.801Z,70.54
2022-11-29T09:43:31.938Z,70.51
2022-11-29T09:46:33.914Z,67.50
2022-11-29T09:49:54.038Z,68.25
2022-11-29T09:53:01.765Z,68.55
2022-11-29T09:56:39.041Z,69.43
2022-11-29T09:59:44.979Z,65.92
2022-11-29T10:02:51.011Z,71.58
2022-11-29T10:05:57.724Z,71.12
2022-11-29T10:09:01.860Z,67.55
2022-11-29T10:12:06.809Z,67.42
2022-11-29T10:15:14.034Z,67.52
2022-11-29T10:18:17.438Z,68.79
2022-11-29T10:21:21.105Z,69.94
2022-11-29T10:24:23.049Z,71.44
2022-11-29T10:27:28.502Z,69.92
2022-11-29T10:30:33.095Z,69.79
2022-11-29T10:33:35.607Z,65.83
2022-11-29T10:36:43.453Z,69.45
2022-11-29T10:39:46.964Z,68.50
2022-11-29T10:42:48.776Z,66.52
2022-11-29T10:45:51.041Z,68.01
2022-11-29T10:48:53.098Z,67.16
2022-11-29T10:51:55.137Z,68.01
2022-11-29T10:54:57.340Z,68.31
2022-11-29T10:58:16.014Z,66.17
2022-11-29T11:01:17.971Z,69.72
2022-11-29T11:04:36.554Z,67.59
2022-11-29T11:07:38.727Z,65.02
2022-11-29T11:10:41.511Z,65.06
2022-11-29T11:13:43.397Z,63.61
2022-11-29T11:16:45.832Z,66.21
2022-11-29T11:20:08.560Z,67.43
2022-11-29T11:23:42.793Z,65.33
2022-11-29T11:26:45.238Z,69.15
2022-11-29T11:29:47.133Z,71.75
2022-11-29T11:33:08.568Z,67.68
2022-11-29T11:36:19.735Z,67.39
2022-11-29T11:39:22.269Z,66.13
2022-11-29T11:42:39.564Z,63.78
2022-11-29T11:45:41.530Z,64.62
2022-11-29T11:48:43.471Z,63.22
2022-11-29T11:51:45.398Z,66.42
2022-11-29T11:54:50.033Z,65.09
2022-11-29T11:58:06.056Z,67.39
2022-11-29T12:01:30.906Z,66.53
2022-11-29T12:04:34.245Z,67.13
2022-11-29T12:08:06.803Z,66.98
2022-11-29T12:11:07.490Z,70.34
2022-11-29T12:14:10.280Z,69.66
2022-11-29T12:17:31.346Z,73.03
2022-11-29T12:20:41.188Z,70.17
2022-11-29T12:23:45.072Z,73.25
2022-11-29T12:27:02.580Z,71.78
2022-11-29T12:30:10.692Z,69.94
2022-11-29T12:33:17.900Z,69.26
2022-11-29T12:36:31.983Z,69.08
2022-11-29T12:39:33.837Z,70.36
2022-11-29T12:42:39.555Z,69.28
2022-11-29T12:45:41.429Z,69.58
2022-11-29T12:49:03.464Z,71.80
2022-11-29T12:52:34.995Z,68.86
2022-11-29T12:55:55.308Z,69.61
2022-11-29T12:58:57.272Z,68.08
2022-11-29T13:02:17.810Z,70.35
2022-11-29T13:05:19.635Z,71.16
2022-11-29T13:08:41.572Z,70.98
2022-11-29T13:11:46.548Z,69.60
2022-11-29T13:14:49.778Z,71.23
2022-11-29T13:17:57.308Z,71.04
2022-11-29T13:21:09.840Z,70.74
2022-11-29T13:24:11.728Z,65.94
2022-11-29T13:27:15.019Z,65.69
2022-11-29T13:30:17.446Z,68.64
2022-11-29T13:33:25.231Z,67.29
2022-11-29T13:36:48.142Z,67.92
2022-11-29T13:40:09.080Z,69.43
2022-11-29T13:43:11.017Z,69.68
2022-11-29T13:46:25.291Z,70.58
2022-11-29T13:49:47.609Z,72.23
2022-11-29T13:52:49.500Z,68.44
2022-11-29T13:56:02.647Z,69.19
2022-11-29T13:59:08.529Z,70.92
2022-11-29T14:02:30.482Z,69.08
2022-11-29T14:05:32.629Z,69.28
2022-11-29T14:09:10.409Z,67.15
2022-11-29T14:12:00.602Z,68.83
2022-11-29T14:15:11.286Z,69.25
2022-11-29T14:18:31.987Z,67.86
2022-11-29T14:21:52.579Z,67.13
2022-11-29T14:24:58.867Z,67.64
2022-11-29T14:28:05.104Z,69.61
2022-11-29T14:31:07.498Z,71.38
2022-11-29T14:34:13.583Z,69.44
2022-11-29T14:37:21.701Z,67.84
2022-11-29T14:40:29.141Z,67.96
2022-11-29T14:43:34.726Z,69.96
2022-11-29T14:46:36.599Z,70.02
2022-11-29T14:49:39.859Z,69.55
2022-11-29T14:52:51.447Z,69.53
2022-11-29T14:55:53.366Z,72.08
2022-11-29T14:59:14.107Z,68.05
2022-11-29T15:02:37.676Z,68.85
2022-11-29T15:05:58.795Z,67.38
2022-11-29T15:09:04.894Z,65.51
2022-11-29T15:12:10.461Z,69.96
2022-11-29T15:15:24.509Z,69.11
2022-11-29T15:18:39.695Z,68.29
2022-11-29T15:22:00.496Z,65.91
2022-11-29T15:25:03.542Z,64.94
2022-11-29T15:28:06.089Z,69.44
2022-11-29T15:31:08.973Z,68.28
2022-11-29T15:34:29.314Z,66.07
2022-11-29T15:37:31.394Z,67.48
2022-11-29T15:40:36.586Z,64.95
2022-11-29T15:43:38.442Z,66.75
2022-11-29T15:46:40.308Z,67.33
2022-11-29T15:49:42.191Z,70.32
2022-11-29T15:52:44.023Z,69.94
2022-11-29T15:55:46.305Z,70.04
2022-11-29T15:58:48.178Z,72.41
2022-11-29T16:01:50.298Z,68.68
2022-11-29T16:04:53.515Z,66.98
2022-11-29T16:07:59.854Z,69.00
2022-11-29T16:11:01.947Z,73.87
2022-11-29T16:14:18.490Z,73.64
2022-11-29T16:17:21.043Z,68.61
2022-11-29T16:20:24.302Z,71.84
2022-11-29T16:23:33.160Z,68.77
2022-11-29T16:26:36.180Z,73.37
2022-11-29T16:29:38.534Z,73.37
2022-11-29T16:32:43.583Z,74.44
2022-11-29T16:35:45.413Z,71.14
2022-11-29T16:38:48.250Z,71.80
2022-11-29T16:42:02.453Z,73.40
2022-11-29T16:45:23.113Z,71.61
2022-11-29T16:48:27.712Z,70.43
2022-11-29T16:51:37.518Z,67.11
2022-11-29T16:54:39.391Z,67.83
2022-11-29T16:57:41.318Z,66.90
2022-11-29T17:00:43.224Z,72.44
2022-11-29T17:03:45.105Z,70.07
2022-11-29T17:06:46.980Z,69.10
2022-11-29T17:09:48.987Z,71.17
2022-11-29T17:12:51.078Z,66.28
2022-11-29T17:15:53.245Z,69.96
2022-11-29T17:18:55.080Z,68.50
2022-11-29T17:21:56.974Z,69.01
2022-11-29T17:24:58.985Z,68.18
2022-11-29T17:28:00.932Z,65.49
2022-11-29T17:31:12.729Z,68.56
2022-11-29T17:34:14.797Z,66.25
2022-11-29T17:37:16.723Z,67.41
2022-11-29T17:40:20.189Z,69.54
2022-11-29T17:43:22.000Z,69.91
2022-11-29T17:46:31.042Z,69.69
2022-11-29T17:49:33.034Z,72.83
2022-11-29T17:52:34.860Z,70.59
2022-11-29T17:55:37.063Z,68.96
2022-11-29T17:58:39.015Z,67.38
2022-11-29T18:01:41.085Z,67.78
2022-11-29T18:04:44.016Z,68.10
2022-11-29T18:07:58.230Z,67.45
2022-11-29T18:11:07.058Z,65.97
2022-11-29T18:14:10.057Z,67.59
2022-11-29T18:17:12.063Z,69.26
2022-11-29T18:20:14.288Z,70.15
2022-11-29T18:23:16.240Z,70.88
2022-11-29T18:26:19.406Z,68.06
2022-11-29T18:29:23.091Z,67.87
2022-11-29T18:32:25.033Z,69.15
2022-11-29T18:35:28.138Z,70.09
2022-11-29T18:38:29.934Z,68.32
2022-11-29T18:41:32.078Z,69.26
2022-11-29T18:44:33.949Z,69.41
2022-11-29T18:47:35.823Z,70.90
2022-11-29T18:50:37.933Z,70.86
2022-11-29T18:53:39.896Z,71.36
2022-11-29T18:56:41.824Z,70.88
2022-11-29T18:59:43.609Z,72.01
2022-11-29T19:02:45.567Z,69.09
2022-11-29T19:05:52.089Z,71.36
2022-11-29T19:08:54.711Z,68.55
2022-11-29T19:11:56.522Z,70.75
2022-11-29T19:14:58.377Z,68.51
2022-11-29T19:18:00.236Z,68.83
2022-11-29T19:21:09.512Z,68.75
2022-11-29T19:24:14.175Z,70.53
2022-11-29T19:27:16.611Z,70.33
2022-11-29T19:30:18.421Z,68.37
2022-11-29T19:33:20.255Z,70.62
2022-11-29T19:36:26.119Z,72.19
2022-11-29T19:39:29.048Z,71.71
2022-11-29T19:42:30.905Z,67.83
2022-11-29T19:45:32.821Z,68.73
2022-11-29T19:48:34.692Z,69.17
2022-11-29T19:51:36.972Z,67.76
2022-11-29T19:54:38.805Z,68.14
2022-11-29T19:57:40.920Z,69.55
2022-11-29T20:00:42.813Z,66.78
2022-11-29T20:03:47.373Z,67.24
2022-11-29T20:06:49.231Z,70.74
2022-11-29T20:09:51.042Z,69.32
2022-11-29T20:12:53.269Z,71.97
2022-11-29T20:15:55.145Z,72.97
2022-11-29T20:18:57.200Z,72.00
2022-11-29T20:21:59.093Z,74.47
2022-11-29T20:25:00.962Z,74.29
2022-11-29T20:28:04.137Z,73.72
2022-11-29T20:31:06.697Z,73.08
2022-11-29T20:34:10.759Z,74.74
2022-11-29T20:37:43.557Z,73.16
2022-11-29T20:41:01.062Z,75.32
2022-11-29T20:44:07.018Z,72.26
2022-11-29T20:47:14.026Z,71.73
2022-11-29T20:50:23.953Z,71.00
2022-11-29T20:53:36.525Z,70.57
2022-11-29T20:56:38.375Z,70.79
2022-11-29T20:59:40.229Z,70.26
2022-11-29T21:02:42.079Z,70.26
2022-11-29T21:05:44.174Z,68.09
2022-11-29T21:08:46.023Z,71.55
2022-11-29T21:11:47.936Z,71.58
2022-11-29T21:14:49.933Z,70.45
2022-11-29T21:17:52.015Z,70.26
2022-11-29T21:20:53.856Z,68.50
2022-11-29T21:23:55.801Z,68.52
2022-11-29T21:26:57.770Z,67.93
2022-11-29T21:30:00.085Z,70.29
2022-11-29T21:33:01.959Z,71.86
2022-11-29T21:36:06.157Z,67.99
2022-11-29T21:39:08.381Z,69.24
2022-11-29T21:42:10.362Z,70.53
2022-11-29T21:45:15.592Z,69.57
2022-11-29T21:48:37.688Z,69.74
2022-11-29T21:51:39.666Z,71.71
2022-11-29T21:54:41.615Z,70.92
2022-11-29T21:57:43.547Z,68.69
2022-11-29T22:00:45.465Z,69.93
2022-11-29T22:03:47.456Z,69.98
2022-11-29T22:06:49.363Z,69.14
2022-11-29T22:09:51.310Z,66.51
2022-11-29T22:12:53.257Z,68.20
2022-11-29T22:15:55.137Z,70.64
2022-11-29T22:18:57.018Z,69.87
2022-11-29T22:21:59.759Z,68.77
2022-11-29T22:25:01.573Z,68.16
2022-11-29T22:28:03.416Z,70.98
2022-11-29T22:31:06.326Z,72.60
2022-11-29T22:34:08.327Z,69.98
2022-11-29T22:37:10.169Z,68.69
2022-11-29T22:40:12.413Z,67.29
2022-11-29T22:43:14.331Z,67.03
2022-11-29T22:46:23.066Z,68.06
2022-11-29T22:49:24.935Z,65.55
2022-11-29T22:52:27.012Z,67.88
2022-11-29T22:55:28.822Z,66.41
2022-11-29T22:58:30.670Z,69.68
2022-11-29T23:01:33.418Z,68.52
2022-11-29T23:04:35.228Z,67.37
2022-11-29T23:07:37.104Z,68.81
2022-11-29T23:10:38.977Z,67.86
2022-11-29T23:13:41.414Z,67.17
2022-11-29T23:16:43.280Z,66.25
2022-11-29T23:19:45.149Z,69.28
2022-11-29T23:22:47.016Z,66.47
2022-11-29T23:25:49.572Z,68.96
2022-11-29T23:28:51.571Z,67.53
2022-11-29T23:31:53.434Z,68.59
2022-11-29T23:34:55.321Z,69.91
2022-11-29T23:37:57.146Z,68.73
2022-11-29T23:40:58.941Z,66.96
2022-11-29T23:44:00.783Z,65.32
2022-11-29T23:47:02.717Z,65.51
2022-11-29T23:50:04.933Z,65.94
2022-11-29T23:53:06.789Z,64.96
2022-11-29T23:56:10.547Z,66.07
2022-11-29T23:59:12.437Z,65.01
